sensor_id;sensor_type;location;lat;lon;timestamp;temperature;humidity
49327;DHT22;35819;44.498;0.166;2022-11-15T08:49:33;13.80;99.90
49327;DHT22;35819;44.498;0.166;2022-11-15T08:52:00;13.90;99.90
49327;DHT22;35819;44.498;0.166;2022-11-15T08:54:25;14.10;99.90
49327;DHT22;35819;44.498;0.166;2022-11-15T08:56:51;14.30;99.90
49327;DHT22;35819;44.498;0.166;2022-11-15T08:59:17;14.40;99.90
49327;DHT22;35819;44.498;0.166;2022-11-15T09:01:43;14.50;99.90
49327;DHT22;35819;44.498;0.166;2022-11-15T09:04:08;14.60;99.90
49327;DHT22;35819;44.498;0.166;2022-11-15T09:06:34;15.00;99.90
49327;DHT22;35819;44.498;0.166;2022-11-15T09:09:00;15.60;99.90
49327;DHT22;35819;44.498;0.166;2022-11-15T09:11:26;16.10;99.90
49327;DHT22;35819;44.498;0.166;2022-11-15T09:13:52;16.50;99.90
49327;DHT22;35819;44.498;0.166;2022-11-15T09:16:18;17.00;99.90
49327;DHT22;35819;44.498;0.166;2022-11-15T09:18:44;17.20;99.90
49327;DHT22;35819;44.498;0.166;2022-11-15T09:21:10;17.30;99.90
49327;DHT22;35819;44.498;0.166;2022-11-15T09:23:36;17.40;99.90
49327;DHT22;35819;44.498;0.166;2022-11-15T09:26:03;17.40;99.90
49327;DHT22;35819;44.498;0.166;2022-11-15T09:28:30;17.30;99.90
49327;DHT22;35819;44.498;0.166;2022-11-15T09:30:57;17.20;99.90
49327;DHT22;35819;44.498;0.166;2022-11-15T09:33:24;17.40;99.90
49327;DHT22;35819;44.498;0.166;2022-11-15T09:35:49;17.40;99.90
49327;DHT22;35819;44.498;0.166;2022-11-15T09:38:15;17.40;99.90
49327;DHT22;35819;44.498;0.166;2022-11-15T09:40:41;17.60;99.90
49327;DHT22;35819;44.498;0.166;2022-11-15T09:46:00;17.20;99.90
49327;DHT22;35819;44.498;0.166;2022-11-15T09:56:37;16.80;99.90
49327;DHT22;35819;44.498;0.166;2022-11-15T10:04:16;16.90;99.90
49327;DHT22;35819;44.498;0.166;2022-11-15T10:06:49;16.80;99.90
49327;DHT22;35819;44.498;0.166;2022-11-15T10:09:21;16.90;99.90
49327;DHT22;35819;44.498;0.166;2022-11-15T10:11:49;17.60;99.90
49327;DHT22;35819;44.498;0.166;2022-11-15T10:14:24;18.60;99.90
49327;DHT22;35819;44.498;0.166;2022-11-15T10:19:50;19.70;99.90
49327;DHT22;35819;44.498;0.166;2022-11-15T10:22:39;19.30;99.90
49327;DHT22;35819;44.498;0.166;2022-11-15T10:27:34;18.30;99.90
49327;DHT22;35819;44.498;0.166;2022-11-15T10:30:02;17.90;99.90
49327;DHT22;35819;44.498;0.166;2022-11-15T10:32:30;17.70;99.90
49327;DHT22;35819;44.498;0.166;2022-11-15T10:34:58;17.50;99.90
49327;DHT22;35819;44.498;0.166;2022-11-15T10:37:31;17.30;99.90
49327;DHT22;35819;44.498;0.166;2022-11-15T10:40:05;17.20;99.90
49327;DHT22;35819;44.498;0.166;2022-11-15T10:42:31;17.00;99.90
49327;DHT22;35819;44.498;0.166;2022-11-15T10:44:57;16.90;99.90
49327;DHT22;35819;44.498;0.166;2022-11-15T10:47:28;16.90;99.90
49327;DHT22;35819;44.498;0.166;2022-11-15T10:52:27;17.10;99.90
49327;DHT22;35819;44.498;0.166;2022-11-15T10:55:04;17.30;99.90
49327;DHT22;35819;44.498;0.166;2022-11-15T10:57:37;17.40;99.90
49327;DHT22;35819;44.498;0.166;2022-11-15T11:00:05;17.50;99.90
49327;DHT22;35819;44.498;0.166;2022-11-15T11:05:33;17.40;99.90
49327;DHT22;35819;44.498;0.166;2022-11-15T11:08:03;17.40;99.90
49327;DHT22;35819;44.498;0.166;2022-11-15T11:10:29;17.30;99.90
49327;DHT22;35819;44.498;0.166;2022-11-15T11:12:55;17.20;99.90
49327;DHT22;35819;44.498;0.166;2022-11-15T11:15:25;17.20;99.90
49327;DHT22;35819;44.498;0.166;2022-11-15T11:18:12;17.40;99.90
49327;DHT22;35819;44.498;0.166;2022-11-15T11:20:48;17.40;99.90
49327;DHT22;35819;44.498;0.166;2022-11-15T11:26:10;17.60;99.90
49327;DHT22;35819;44.498;0.166;2022-11-15T11:31:28;17.20;99.90
49327;DHT22;35819;44.498;0.166;2022-11-15T11:37:07;17.00;99.90
49327;DHT22;35819;44.498;0.166;2022-11-15T11:50:59;16.80;99.90
49327;DHT22;35819;44.498;0.166;2022-11-15T11:53:37;16.90;99.90
49327;DHT22;35819;44.498;0.166;2022-11-15T11:56:22;17.10;99.90
49327;DHT22;35819;44.498;0.166;2022-11-15T11:58:48;17.20;99.90
49327;DHT22;35819;44.498;0.166;2022-11-15T12:01:29;17.30;99.90
49327;DHT22;35819;44.498;0.166;2022-11-15T12:04:03;17.40;99.90
49327;DHT22;35819;44.498;0.166;2022-11-15T12:06:57;17.60;99.90
49327;DHT22;35819;44.498;0.166;2022-11-15T12:09:46;17.70;99.90
49327;DHT22;35819;44.498;0.166;2022-11-15T12:15:14;17.80;99.90
49327;DHT22;35819;44.498;0.166;2022-11-15T12:17:41;17.80;99.90
49327;DHT22;35819;44.498;0.166;2022-11-15T12:20:25;17.80;99.90
49327;DHT22;35819;44.498;0.166;2022-11-15T12:23:20;17.90;99.90
49327;DHT22;35819;44.498;0.166;2022-11-15T12:25:57;17.90;99.90
49327;DHT22;35819;44.498;0.166;2022-11-15T12:34:03;17.70;99.90
49327;DHT22;35819;44.498;0.166;2022-11-15T12:36:40;17.60;99.90
49327;DHT22;35819;44.498;0.166;2022-11-15T12:39:12;17.50;99.90
49327;DHT22;35819;44.498;0.166;2022-11-15T13:00:01;17.10;99.90
49327;DHT22;35819;44.498;0.166;2022-11-15T13:02:41;17.10;99.90
49327;DHT22;35819;44.498;0.166;2022-11-15T13:17:50;16.60;99.90
49327;DHT22;35819;44.498;0.166;2022-11-15T13:33:34;16.50;99.90
49327;DHT22;35819;44.498;0.166;2022-11-15T13:36:15;16.40;99.90
49327;DHT22;35819;44.498;0.166;2022-11-15T13:38:43;16.40;99.90
49327;DHT22;35819;44.498;0.166;2022-11-15T13:41:19;16.30;99.90
49327;DHT22;35819;44.498;0.166;2022-11-15T13:43:46;16.20;99.90
49327;DHT22;35819;44.498;0.166;2022-11-15T13:46:23;16.20;99.90
49327;DHT22;35819;44.498;0.166;2022-11-15T13:48:59;16.20;99.90
49327;DHT22;35819;44.498;0.166;2022-11-15T13:51:36;16.10;99.90
49327;DHT22;35819;44.498;0.166;2022-11-15T13:54:24;16.10;99.90
49327;DHT22;35819;44.498;0.166;2022-11-15T13:56:59;16.00;99.90
49327;DHT22;35819;44.498;0.166;2022-11-15T13:59:28;15.80;99.90
49327;DHT22;35819;44.498;0.166;2022-11-15T14:01:56;15.60;99.90
49327;DHT22;35819;44.498;0.166;2022-11-15T14:04:24;15.50;99.90
49327;DHT22;35819;44.498;0.166;2022-11-15T14:06:54;15.30;99.90
49327;DHT22;35819;44.498;0.166;2022-11-15T14:11:59;15.00;99.90
49327;DHT22;35819;44.498;0.166;2022-11-15T14:14:28;14.90;99.90
49327;DHT22;35819;44.498;0.166;2022-11-15T14:16:59;14.90;99.90
49327;DHT22;35819;44.498;0.166;2022-11-15T14:24:44;14.80;99.90
49327;DHT22;35819;44.498;0.166;2022-11-15T14:27:19;14.80;99.90
49327;DHT22;35819;44.498;0.166;2022-11-15T14:29:46;14.70;99.90
49327;DHT22;35819;44.498;0.166;2022-11-15T14:32:16;14.70;99.90
49327;DHT22;35819;44.498;0.166;2022-11-15T14:34:42;14.70;99.90
49327;DHT22;35819;44.498;0.166;2022-11-15T14:37:23;14.70;99.90
49327;DHT22;35819;44.498;0.166;2022-11-15T14:39:50;14.80;99.90
49327;DHT22;35819;44.498;0.166;2022-11-15T14:42:17;14.80;99.90
49327;DHT22;35819;44.498;0.166;2022-11-15T14:44:43;14.80;99.90
49327;DHT22;35819;44.498;0.166;2022-11-15T14:47:08;14.90;99.90
49327;DHT22;35819;44.498;0.166;2022-11-15T14:49:34;14.90;99.90
49327;DHT22;35819;44.498;0.166;2022-11-15T14:52:00;15.00;99.90
49327;DHT22;35819;44.498;0.166;2022-11-15T14:54:26;15.10;99.90
49327;DHT22;35819;44.498;0.166;2022-11-15T14:56:51;15.10;99.90
49327;DHT22;35819;44.498;0.166;2022-11-15T14:59:17;15.10;99.90
49327;DHT22;35819;44.498;0.166;2022-11-15T15:01:43;15.20;99.90
49327;DHT22;35819;44.498;0.166;2022-11-15T15:04:10;15.10;99.90
49327;DHT22;35819;44.498;0.166;2022-11-15T15:06:36;15.20;99.90
49327;DHT22;35819;44.498;0.166;2022-11-15T15:09:02;15.20;99.90
49327;DHT22;35819;44.498;0.166;2022-11-15T15:11:30;15.30;99.90
49327;DHT22;35819;44.498;0.166;2022-11-15T15:13:56;15.40;99.90
49327;DHT22;35819;44.498;0.166;2022-11-15T15:16:24;15.60;99.90
49327;DHT22;35819;44.498;0.166;2022-11-15T15:18:51;15.90;99.90
49327;DHT22;35819;44.498;0.166;2022-11-15T15:21:26;16.10;99.90
49327;DHT22;35819;44.498;0.166;2022-11-15T15:23:56;16.30;99.90
49327;DHT22;35819;44.498;0.166;2022-11-15T15:26:23;16.50;99.90
49327;DHT22;35819;44.498;0.166;2022-11-15T15:28:49;16.50;99.90
49327;DHT22;35819;44.498;0.166;2022-11-15T15:31:16;16.50;99.90
49327;DHT22;35819;44.498;0.166;2022-11-15T15:33:42;16.40;99.90
49327;DHT22;35819;44.498;0.166;2022-11-15T15:36:17;16.30;99.90
49327;DHT22;35819;44.498;0.166;2022-11-15T15:38:44;16.30;99.90
49327;DHT22;35819;44.498;0.166;2022-11-15T15:41:13;16.20;99.90
49327;DHT22;35819;44.498;0.166;2022-11-15T15:43:39;16.10;99.90
49327;DHT22;35819;44.498;0.166;2022-11-15T15:46:11;15.90;99.90
49327;DHT22;35819;44.498;0.166;2022-11-15T15:48:37;15.80;99.90
49327;DHT22;35819;44.498;0.166;2022-11-15T15:51:05;15.80;99.90
49327;DHT22;35819;44.498;0.166;2022-11-15T15:53:31;15.60;99.90
49327;DHT22;35819;44.498;0.166;2022-11-15T15:55:57;15.60;99.90
49327;DHT22;35819;44.498;0.166;2022-11-15T15:58:22;15.60;99.90
49327;DHT22;35819;44.498;0.166;2022-11-15T16:00:48;15.50;99.90
49327;DHT22;35819;44.498;0.166;2022-11-15T16:03:14;15.50;99.90
49327;DHT22;35819;44.498;0.166;2022-11-15T16:05:39;15.50;99.90
49327;DHT22;35819;44.498;0.166;2022-11-15T16:08:05;15.40;99.90
49327;DHT22;35819;44.498;0.166;2022-11-15T16:10:34;15.40;99.90
49327;DHT22;35819;44.498;0.166;2022-11-15T16:13:00;15.40;99.90
49327;DHT22;35819;44.498;0.166;2022-11-15T16:15:28;15.40;99.90
49327;DHT22;35819;44.498;0.166;2022-11-15T16:17:57;15.40;99.90
49327;DHT22;35819;44.498;0.166;2022-11-15T16:20:40;15.40;99.90
49327;DHT22;35819;44.498;0.166;2022-11-15T16:23:10;15.40;99.90
49327;DHT22;35819;44.498;0.166;2022-11-15T16:25:49;15.30;99.90
49327;DHT22;35819;44.498;0.166;2022-11-15T16:28:24;15.30;99.90
49327;DHT22;35819;44.498;0.166;2022-11-15T16:31:02;15.30;99.90
49327;DHT22;35819;44.498;0.166;2022-11-15T16:33:28;15.30;99.90
49327;DHT22;35819;44.498;0.166;2022-11-15T16:35:54;15.40;99.90
49327;DHT22;35819;44.498;0.166;2022-11-15T16:38:19;15.30;99.90
49327;DHT22;35819;44.498;0.166;2022-11-15T16:40:45;15.30;99.90
49327;DHT22;35819;44.498;0.166;2022-11-15T16:43:11;15.20;99.90
49327;DHT22;35819;44.498;0.166;2022-11-15T16:45:37;15.10;99.90
49327;DHT22;35819;44.498;0.166;2022-11-15T16:48:03;15.00;99.90
49327;DHT22;35819;44.498;0.166;2022-11-15T16:50:32;14.80;99.90
49327;DHT22;35819;44.498;0.166;2022-11-15T16:53:00;14.70;99.90
49327;DHT22;35819;44.498;0.166;2022-11-15T16:55:28;14.60;99.90
49327;DHT22;35819;44.498;0.166;2022-11-15T16:57:55;14.50;99.90
49327;DHT22;35819;44.498;0.166;2022-11-15T17:00:22;14.50;99.90
49327;DHT22;35819;44.498;0.166;2022-11-15T17:02:50;14.40;99.90
49327;DHT22;35819;44.498;0.166;2022-11-15T17:05:18;14.40;99.90
49327;DHT22;35819;44.498;0.166;2022-11-15T17:07:48;14.30;99.90
49327;DHT22;35819;44.498;0.166;2022-11-15T17:10:15;14.20;99.90
49327;DHT22;35819;44.498;0.166;2022-11-15T17:12:41;14.20;99.90
49327;DHT22;35819;44.498;0.166;2022-11-15T17:15:07;14.20;99.90
49327;DHT22;35819;44.498;0.166;2022-11-15T17:17:33;14.10;99.90
49327;DHT22;35819;44.498;0.166;2022-11-15T17:19:59;14.10;99.90
49327;DHT22;35819;44.498;0.166;2022-11-15T17:22:25;14.00;99.90
49327;DHT22;35819;44.498;0.166;2022-11-15T17:24:50;14.00;99.90
49327;DHT22;35819;44.498;0.166;2022-11-15T17:27:16;13.90;99.90
49327;DHT22;35819;44.498;0.166;2022-11-15T17:29:42;13.80;99.90
49327;DHT22;35819;44.498;0.166;2022-11-15T17:32:08;13.80;99.90
49327;DHT22;35819;44.498;0.166;2022-11-15T17:34:34;13.80;99.90
49327;DHT22;35819;44.498;0.166;2022-11-15T17:37:00;13.80;99.90
49327;DHT22;35819;44.498;0.166;2022-11-15T17:39:25;13.70;99.90
49327;DHT22;35819;44.498;0.166;2022-11-15T17:41:51;13.70;99.90
49327;DHT22;35819;44.498;0.166;2022-11-15T17:44:17;13.70;99.90
49327;DHT22;35819;44.498;0.166;2022-11-15T17:46:43;13.70;99.90
49327;DHT22;35819;44.498;0.166;2022-11-15T17:49:09;13.70;99.90
49327;DHT22;35819;44.498;0.166;2022-11-15T17:51:35;13.70;99.90
49327;DHT22;35819;44.498;0.166;2022-11-15T17:54:00;13.70;99.90
49327;DHT22;35819;44.498;0.166;2022-11-15T17:56:27;13.70;99.90
49327;DHT22;35819;44.498;0.166;2022-11-15T17:58:57;13.60;99.90
49327;DHT22;35819;44.498;0.166;2022-11-15T18:01:26;13.70;99.90
49327;DHT22;35819;44.498;0.166;2022-11-15T18:03:52;13.70;99.90
49327;DHT22;35819;44.498;0.166;2022-11-15T18:06:21;13.70;99.90
49327;DHT22;35819;44.498;0.166;2022-11-15T18:08:50;13.70;99.90
49327;DHT22;35819;44.498;0.166;2022-11-15T18:17:19;13.60;99.90
49327;DHT22;35819;44.498;0.166;2022-11-15T18:19:45;13.60;99.90
49327;DHT22;35819;44.498;0.166;2022-11-15T18:22:24;13.60;99.90
49327;DHT22;35819;44.498;0.166;2022-11-15T18:24:51;13.60;99.90
49327;DHT22;35819;44.498;0.166;2022-11-15T18:27:17;13.60;99.90
49327;DHT22;35819;44.498;0.166;2022-11-15T18:29:45;13.50;99.90
49327;DHT22;35819;44.498;0.166;2022-11-15T18:32:11;13.60;99.90
49327;DHT22;35819;44.498;0.166;2022-11-15T18:34:42;13.50;99.90
49327;DHT22;35819;44.498;0.166;2022-11-15T18:37:27;13.50;99.90
49327;DHT22;35819;44.498;0.166;2022-11-15T18:39:53;13.40;99.90
49327;DHT22;35819;44.498;0.166;2022-11-15T18:53:00;13.00;99.90
49327;DHT22;35819;44.498;0.166;2022-11-15T18:59:31;12.90;99.90
49327;DHT22;35819;44.498;0.166;2022-11-15T19:39:46;13.40;99.90
49327;DHT22;35819;44.498;0.166;2022-11-15T19:43:02;13.40;99.90
49327;DHT22;35819;44.498;0.166;2022-11-15T19:46:23;13.40;99.90
49327;DHT22;35819;44.498;0.166;2022-11-15T19:49:41;13.40;99.90
49327;DHT22;35819;44.498;0.166;2022-11-15T20:00:49;13.30;99.90
